sensor_id;sensor_type;location;lat;lon;timestamp;pressure;altitude;pressure_sealevel;temperature;humidity
14882;BME280;7533;51.278;12.588;2023-08-08T00:04:05;99849.31;;;27.51;58.20
14882;BME280;7533;51.278;12.588;2023-08-08T00:09:08;99841.81;;;27.45;58.30
14882;BME280;7533;51.278;12.588;2023-08-08T00:14:12;99841.25;;;27.41;58.61
14882;BME280;7533;51.278;12.588;2023-08-08T00:19:15;99837.97;;;27.38;58.53
14882;BME280;7533;51.278;12.588;2023-08-08T00:24:19;99825.72;;;27.34;58.59
14882;BME280;7533;51.278;12.588;2023-08-08T00:29:23;99829.91;;;27.28;58.51
14882;BME280;7533;51.278;12.588;2023-08-08T00:34:26;99834.81;;;27.25;58.59
14882;BME280;7533;51.278;12.588;2023-08-08T00:39:29;99829.66;;;27.22;58.67
14882;BME280;7533;51.278;12.588;2023-08-08T00:44:33;99833.41;;;27.21;58.50
14882;BME280;7533;51.278;12.588;2023-08-08T00:49:37;99833.03;;;27.33;58.25
14882;BME280;7533;51.278;12.588;2023-08-08T00:54:40;99824.53;;;27.36;58.02
14882;BME280;7533;51.278;12.588;2023-08-08T00:59:45;99820.38;;;27.24;58.36
14882;BME280;7533;51.278;12.588;2023-08-08T01:04:49;99811.59;;;27.12;58.51
14882;BME280;7533;51.278;12.588;2023-08-08T01:09:55;99808.75;;;27.04;58.67
14882;BME280;7533;51.278;12.588;2023-08-08T01:15:08;99798.28;;;26.92;58.90
14882;BME280;7533;51.278;12.588;2023-08-08T01:20:13;99798.09;;;26.93;58.72
14882;BME280;7533;51.278;12.588;2023-08-08T01:25:20;99794.16;;;26.87;58.91
14882;BME280;7533;51.278;12.588;2023-08-08T01:30:23;99797.19;;;26.84;59.12
14882;BME280;7533;51.278;12.588;2023-08-08T01:35:30;99807.47;;;26.81;59.01
14882;BME280;7533;51.278;12.588;2023-08-08T01:40:36;99803.22;;;26.78;59.25
14882;BME280;7533;51.278;12.588;2023-08-08T01:45:41;99801.81;;;26.74;59.32
14882;BME280;7533;51.278;12.588;2023-08-08T01:50:45;99799.25;;;26.73;59.03
14882;BME280;7533;51.278;12.588;2023-08-08T01:55:49;99795.13;;;26.69;59.22
14882;BME280;7533;51.278;12.588;2023-08-08T02:00:53;99796.31;;;26.66;59.20
14882;BME280;7533;51.278;12.588;2023-08-08T02:05:56;99791.56;;;26.68;59.23
14882;BME280;7533;51.278;12.588;2023-08-08T02:11:01;99784.63;;;26.83;58.91
14882;BME280;7533;51.278;12.588;2023-08-08T02:16:04;99777.78;;;26.79;58.88
14882;BME280;7533;51.278;12.588;2023-08-08T02:21:07;99781.56;;;26.69;59.31
14882;BME280;7533;51.278;12.588;2023-08-08T02:26:11;99781.31;;;26.62;59.43
14882;BME280;7533;51.278;12.588;2023-08-08T02:31:14;99781.94;;;26.56;59.44
14882;BME280;7533;51.278;12.588;2023-08-08T02:36:22;99773.38;;;26.51;59.52
14882;BME280;7533;51.278;12.588;2023-08-08T02:41:26;99773.53;;;26.49;59.76
14882;BME280;7533;51.278;12.588;2023-08-08T02:46:30;99765.84;;;26.45;59.78
14882;BME280;7533;51.278;12.588;2023-08-08T02:51:33;99767.84;;;26.43;59.57
14882;BME280;7533;51.278;12.588;2023-08-08T02:56:37;99777.28;;;26.38;59.70
14882;BME280;7533;51.278;12.588;2023-08-08T03:01:41;99778.41;;;26.36;59.76
14882;BME280;7533;51.278;12.588;2023-08-08T03:06:50;99770.59;;;26.33;59.90
14882;BME280;7533;51.278;12.588;2023-08-08T03:11:55;99768.00;;;26.31;60.05
14882;BME280;7533;51.278;12.588;2023-08-08T03:16:58;99771.03;;;26.28;60.24
14882;BME280;7533;51.278;12.588;2023-08-08T03:22:03;99758.63;;;26.26;59.98
14882;BME280;7533;51.278;12.588;2023-08-08T03:27:11;99771.31;;;26.25;60.21
14882;BME280;7533;51.278;12.588;2023-08-08T03:32:14;99764.34;;;26.23;59.95
14882;BME280;7533;51.278;12.588;2023-08-08T03:37:17;99775.38;;;26.21;60.06
14882;BME280;7533;51.278;12.588;2023-08-08T03:42:24;99771.94;;;26.19;60.02
14882;BME280;7533;51.278;12.588;2023-08-08T03:47:27;99775.81;;;26.17;60.00
14882;BME280;7533;51.278;12.588;2023-08-08T03:52:30;99763.38;;;26.14;60.02
14882;BME280;7533;51.278;12.588;2023-08-08T03:57:37;99768.41;;;26.09;59.82
14882;BME280;7533;51.278;12.588;2023-08-08T04:02:40;99776.84;;;26.06;59.95
14882;BME280;7533;51.278;12.588;2023-08-08T04:07:43;99769.72;;;26.05;60.14
14882;BME280;7533;51.278;12.588;2023-08-08T04:12:47;99770.00;;;26.02;60.14
14882;BME280;7533;51.278;12.588;2023-08-08T04:17:50;99772.19;;;25.98;60.00
14882;BME280;7533;51.278;12.588;2023-08-08T04:22:53;99763.16;;;25.98;59.82
14882;BME280;7533;51.278;12.588;2023-08-08T04:27:57;99772.31;;;25.97;60.11
14882;BME280;7533;51.278;12.588;2023-08-08T04:33:00;99775.16;;;26.05;59.41
14882;BME280;7533;51.278;12.588;2023-08-08T04:38:04;99768.41;;;26.09;59.49
14882;BME280;7533;51.278;12.588;2023-08-08T04:43:09;99757.19;;;26.04;59.46
14882;BME280;7533;51.278;12.588;2023-08-08T04:48:14;99764.03;;;25.98;59.25
14882;BME280;7533;51.278;12.588;2023-08-08T04:53:20;99757.19;;;25.94;59.63
14882;BME280;7533;51.278;12.588;2023-08-08T04:58:25;99761.03;;;25.92;59.46
14882;BME280;7533;51.278;12.588;2023-08-08T05:03:30;99761.03;;;25.92;59.30
14882;BME280;7533;51.278;12.588;2023-08-08T05:08:34;99769.50;;;25.89;59.76
14882;BME280;7533;51.278;12.588;2023-08-08T05:13:40;99759.66;;;25.88;59.46
14882;BME280;7533;51.278;12.588;2023-08-08T05:18:44;99762.38;;;25.88;59.75
14882;BME280;7533;51.278;12.588;2023-08-08T05:23:48;99766.06;;;25.87;59.67
14882;BME280;7533;51.278;12.588;2023-08-08T05:28:53;99766.22;;;25.85;59.81
14882;BME280;7533;51.278;12.588;2023-08-08T05:33:56;99765.34;;;25.84;59.31
14882;BME280;7533;51.278;12.588;2023-08-08T05:39:01;99761.78;;;25.84;59.41
14882;BME280;7533;51.278;12.588;2023-08-08T05:44:07;99775.34;;;25.84;59.37
14882;BME280;7533;51.278;12.588;2023-08-08T05:49:13;99766.53;;;25.82;59.47
14882;BME280;7533;51.278;12.588;2023-08-08T05:54:23;99756.53;;;25.82;59.59
14882;BME280;7533;51.278;12.588;2023-08-08T05:59:28;99755.53;;;25.83;59.33
14882;BME280;7533;51.278;12.588;2023-08-08T06:04:33;99762.66;;;25.84;59.54
14882;BME280;7533;51.278;12.588;2023-08-08T06:09:36;99757.38;;;25.83;59.47
14882;BME280;7533;51.278;12.588;2023-08-08T06:14:41;99762.66;;;25.84;59.45
14882;BME280;7533;51.278;12.588;2023-08-08T06:19:44;99773.66;;;25.83;59.14
14882;BME280;7533;51.278;12.588;2023-08-08T06:24:46;99766.53;;;25.82;59.08
14882;BME280;7533;51.278;12.588;2023-08-08T06:29:51;99767.38;;;25.82;59.46
14882;BME280;7533;51.278;12.588;2023-08-08T06:34:54;99763.66;;;25.83;59.18
14882;BME280;7533;51.278;12.588;2023-08-08T06:39:57;99760.63;;;25.87;59.12
14882;BME280;7533;51.278;12.588;2023-08-08T06:45:01;99754.22;;;25.88;59.11
14882;BME280;7533;51.278;12.588;2023-08-08T06:50:07;99755.78;;;25.90;58.82
14882;BME280;7533;51.278;12.588;2023-08-08T06:55:11;99759.19;;;25.92;58.95
14882;BME280;7533;51.278;12.588;2023-08-08T07:00:16;99749.91;;;25.95;58.79
14882;BME280;7533;51.278;12.588;2023-08-08T07:05:19;99749.59;;;25.98;58.70
14882;BME280;7533;51.278;12.588;2023-08-08T07:10:24;99766.56;;;25.04;53.68
14882;BME280;7533;51.278;12.588;2023-08-08T07:15:28;99757.03;;;25.10;53.03
14882;BME280;7533;51.278;12.588;2023-08-08T07:20:32;99778.06;;;24.97;53.19
14882;BME280;7533;51.278;12.588;2023-08-08T07:25:36;99771.81;;;24.87;53.38
14882;BME280;7533;51.278;12.588;2023-08-08T07:30:40;99767.81;;;24.81;52.75
14882;BME280;7533;51.278;12.588;2023-08-08T07:35:43;99774.91;;;24.72;53.20
14882;BME280;7533;51.278;12.588;2023-08-08T07:40:47;99768.19;;;24.47;53.69
14882;BME280;7533;51.278;12.588;2023-08-08T07:45:51;99765.94;;;24.52;53.12
14882;BME280;7533;51.278;12.588;2023-08-08T07:50:54;99773.34;;;24.29;53.35
14882;BME280;7533;51.278;12.588;2023-08-08T07:55:57;99778.19;;;24.26;53.68
14882;BME280;7533;51.278;12.588;2023-08-08T08:01:01;99781.34;;;24.31;53.86
14882;BME280;7533;51.278;12.588;2023-08-08T08:06:05;99779.75;;;24.28;53.72
14882;BME280;7533;51.278;12.588;2023-08-08T08:11:08;99780.41;;;24.42;55.21
14882;BME280;7533;51.278;12.588;2023-08-08T08:16:22;99772.06;;;24.74;55.27
14882;BME280;7533;51.278;12.588;2023-08-08T08:21:36;99769.81;;;24.89;55.43
14882;BME280;7533;51.278;12.588;2023-08-08T08:26:53;99766.28;;;24.98;55.28
14882;BME280;7533;51.278;12.588;2023-08-08T08:32:00;99763.13;;;25.02;55.52
14882;BME280;7533;51.278;12.588;2023-08-08T08:37:04;99757.19;;;25.09;55.70
14882;BME280;7533;51.278;12.588;2023-08-08T08:42:11;99752.31;;;25.12;56.10
14882;BME280;7533;51.278;12.588;2023-08-08T08:47:20;99765.44;;;25.17;56.07
14882;BME280;7533;51.278;12.588;2023-08-08T08:52:23;99767.00;;;25.19;56.04
14882;BME280;7533;51.278;12.588;2023-08-08T08:57:28;99762.31;;;25.21;56.18
14882;BME280;7533;51.278;12.588;2023-08-08T09:02:32;99766.72;;;25.22;56.23
14882;BME280;7533;51.278;12.588;2023-08-08T09:07:36;99770.00;;;25.26;56.63
14882;BME280;7533;51.278;12.588;2023-08-08T09:12:39;99772.41;;;25.29;56.29
14882;BME280;7533;51.278;12.588;2023-08-08T09:17:44;99764.72;;;25.34;56.81
14882;BME280;7533;51.278;12.588;2023-08-08T09:22:51;99758.16;;;25.37;56.88
14882;BME280;7533;51.278;12.588;2023-08-08T09:27:55;99759.56;;;25.50;59.65
14882;BME280;7533;51.278;12.588;2023-08-08T09:33:00;99755.41;;;25.56;62.02
14882;BME280;7533;51.278;12.588;2023-08-08T09:38:04;99761.69;;;25.56;62.60
14882;BME280;7533;51.278;12.588;2023-08-08T09:43:07;99763.97;;;25.61;64.65
14882;BME280;7533;51.278;12.588;2023-08-08T09:48:12;99745.25;;;25.68;66.41
14882;BME280;7533;51.278;12.588;2023-08-08T09:53:18;99747.81;;;25.69;67.37
14882;BME280;7533;51.278;12.588;2023-08-08T09:58:23;99736.28;;;25.67;67.07
14882;BME280;7533;51.278;12.588;2023-08-08T10:03:31;99753.88;;;25.34;60.37
14882;BME280;7533;51.278;12.588;2023-08-08T10:08:35;99741.75;;;24.99;56.24
14882;BME280;7533;51.278;12.588;2023-08-08T10:13:46;99734.91;;;24.76;54.36
14882;BME280;7533;51.278;12.588;2023-08-08T10:18:56;99732.06;;;24.77;54.89
14882;BME280;7533;51.278;12.588;2023-08-08T10:24:02;99740.56;;;24.63;53.96
14882;BME280;7533;51.278;12.588;2023-08-08T10:29:06;99736.28;;;24.51;53.77
14882;BME280;7533;51.278;12.588;2023-08-08T10:34:10;99747.41;;;24.48;54.57
14882;BME280;7533;51.278;12.588;2023-08-08T10:39:15;99743.97;;;24.36;53.47
14882;BME280;7533;51.278;12.588;2023-08-08T10:44:23;99743.88;;;24.26;52.90
14882;BME280;7533;51.278;12.588;2023-08-08T10:49:28;99750.34;;;24.05;53.46
14882;BME280;7533;51.278;12.588;2023-08-08T10:54:31;99747.22;;;24.40;54.26
14882;BME280;7533;51.278;12.588;2023-08-08T10:59:37;99748.72;;;24.73;54.09
14882;BME280;7533;51.278;12.588;2023-08-08T11:04:42;99742.91;;;24.87;54.31
14882;BME280;7533;51.278;12.588;2023-08-08T11:09:45;99716.81;;;24.96;54.79
14882;BME280;7533;51.278;12.588;2023-08-08T11:14:48;99711.56;;;25.04;54.73
14882;BME280;7533;51.278;12.588;2023-08-08T11:19:52;99706.13;;;25.14;54.90
14882;BME280;7533;51.278;12.588;2023-08-08T11:24:55;99704.69;;;25.19;55.49
14882;BME280;7533;51.278;12.588;2023-08-08T11:30:06;99694.44;;;25.23;55.69
14882;BME280;7533;51.278;12.588;2023-08-08T11:35:16;99690.16;;;25.30;56.05
14882;BME280;7533;51.278;12.588;2023-08-08T11:40:20;99682.16;;;25.38;56.27
14882;BME280;7533;51.278;12.588;2023-08-08T11:45:25;99676.31;;;25.43;56.82
14882;BME280;7533;51.278;12.588;2023-08-08T11:50:30;99664.88;;;25.49;56.86
14882;BME280;7533;51.278;12.588;2023-08-08T11:55:36;99667.28;;;25.52;56.55
14882;BME280;7533;51.278;12.588;2023-08-08T12:00:39;99664.09;;;25.66;56.71
14882;BME280;7533;51.278;12.588;2023-08-08T12:05:47;99643.53;;;25.73;57.33
14882;BME280;7533;51.278;12.588;2023-08-08T12:10:55;99636.41;;;25.82;57.17
14882;BME280;7533;51.278;12.588;2023-08-08T12:16:16;99635.22;;;25.84;57.10
14882;BME280;7533;51.278;12.588;2023-08-08T12:21:26;99619.97;;;25.83;57.62
14882;BME280;7533;51.278;12.588;2023-08-08T12:26:38;99630.38;;;25.88;58.08
14882;BME280;7533;51.278;12.588;2023-08-08T12:31:41;99617.81;;;25.87;58.19
14882;BME280;7533;51.278;12.588;2023-08-08T12:36:45;99624.94;;;25.88;58.54
14882;BME280;7533;51.278;12.588;2023-08-08T12:41:48;99632.91;;;25.90;58.19
14882;BME280;7533;51.278;12.588;2023-08-08T12:46:51;99629.03;;;25.92;58.38
14882;BME280;7533;51.278;12.588;2023-08-08T12:51:56;99611.03;;;26.01;58.11
14882;BME280;7533;51.278;12.588;2023-08-08T12:56:58;99602.72;;;26.02;57.92
14882;BME280;7533;51.278;12.588;2023-08-08T13:02:02;99596.84;;;26.07;57.83
14882;BME280;7533;51.278;12.588;2023-08-08T13:07:07;99600.97;;;26.11;57.75
14882;BME280;7533;51.278;12.588;2023-08-08T13:12:10;99599.78;;;26.14;58.15
14882;BME280;7533;51.278;12.588;2023-08-08T13:17:14;99594.59;;;26.20;58.13
14882;BME280;7533;51.278;12.588;2023-08-08T13:22:18;99589.34;;;26.19;57.64
14882;BME280;7533;51.278;12.588;2023-08-08T13:27:22;99598.50;;;26.18;57.82
14882;BME280;7533;51.278;12.588;2023-08-08T13:32:26;99597.19;;;26.22;57.77
14882;BME280;7533;51.278;12.588;2023-08-08T13:37:31;99588.50;;;26.18;58.04
14882;BME280;7533;51.278;12.588;2023-08-08T13:42:34;99601.03;;;26.19;58.11
14882;BME280;7533;51.278;12.588;2023-08-08T13:47:37;99587.19;;;26.22;58.01
14882;BME280;7533;51.278;12.588;2023-08-08T13:52:42;99589.28;;;26.28;57.54
14882;BME280;7533;51.278;12.588;2023-08-08T13:57:46;99582.91;;;26.37;57.59
14882;BME280;7533;51.278;12.588;2023-08-08T14:02:49;99574.25;;;26.34;57.51
14882;BME280;7533;51.278;12.588;2023-08-08T14:07:54;99572.16;;;26.28;57.36
14882;BME280;7533;51.278;12.588;2023-08-08T14:12:57;99588.75;;;26.43;56.74
14882;BME280;7533;51.278;12.588;2023-08-08T14:18:00;99588.03;;;26.41;56.87
14882;BME280;7533;51.278;12.588;2023-08-08T14:23:05;99588.91;;;26.59;56.22
14882;BME280;7533;51.278;12.588;2023-08-08T14:28:08;99590.25;;;26.55;55.93
14882;BME280;7533;51.278;12.588;2023-08-08T14:33:12;99608.22;;;26.56;56.08
14882;BME280;7533;51.278;12.588;2023-08-08T14:38:17;99623.97;;;26.52;55.66
14882;BME280;7533;51.278;12.588;2023-08-08T14:43:20;99623.03;;;26.44;55.38
14882;BME280;7533;51.278;12.588;2023-08-08T14:48:25;99660.41;;;26.50;55.27
14882;BME280;7533;51.278;12.588;2023-08-08T14:53:30;99667.72;;;26.49;54.64
14882;BME280;7533;51.278;12.588;2023-08-08T14:58:33;99682.41;;;26.47;54.05
14882;BME280;7533;51.278;12.588;2023-08-08T15:03:36;99685.47;;;26.44;53.68
14882;BME280;7533;51.278;12.588;2023-08-08T15:08:44;99695.59;;;26.42;53.65
14882;BME280;7533;51.278;12.588;2023-08-08T15:13:47;99701.34;;;26.29;54.76
14882;BME280;7533;51.278;12.588;2023-08-08T15:18:50;99709.50;;;26.29;54.41
14882;BME280;7533;51.278;12.588;2023-08-08T15:23:54;99711.34;;;26.28;54.81
14882;BME280;7533;51.278;12.588;2023-08-08T15:28:57;99712.59;;;26.44;54.80
14882;BME280;7533;51.278;12.588;2023-08-08T15:34:00;99702.22;;;26.57;54.37
14882;BME280;7533;51.278;12.588;2023-08-08T15:39:05;99697.56;;;26.49;54.45
14882;BME280;7533;51.278;12.588;2023-08-08T15:44:08;99692.03;;;26.41;54.86
14882;BME280;7533;51.278;12.588;2023-08-08T15:49:11;99691.16;;;26.41;54.92
14882;BME280;7533;51.278;12.588;2023-08-08T15:54:16;99709.56;;;26.37;54.78
14882;BME280;7533;51.278;12.588;2023-08-08T15:59:19;99704.75;;;26.58;54.32
14882;BME280;7533;51.278;12.588;2023-08-08T16:04:24;99701.97;;;26.68;53.81
14882;BME280;7533;51.278;12.588;2023-08-08T16:09:29;99712.22;;;26.74;53.86
14882;BME280;7533;51.278;12.588;2023-08-08T16:14:32;99700.28;;;26.85;53.88
14882;BME280;7533;51.278;12.588;2023-08-08T16:19:34;99696.31;;;26.97;53.08
14882;BME280;7533;51.278;12.588;2023-08-08T16:24:39;99696.69;;;27.20;53.18
14882;BME280;7533;51.278;12.588;2023-08-08T16:29:42;99703.53;;;27.24;53.30
14882;BME280;7533;51.278;12.588;2023-08-08T16:34:45;99706.00;;;27.35;53.04
14882;BME280;7533;51.278;12.588;2023-08-08T16:39:49;99704.66;;;27.39;52.85
14882;BME280;7533;51.278;12.588;2023-08-08T16:44:52;99701.25;;;27.37;53.06
14882;BME280;7533;51.278;12.588;2023-08-08T16:49:55;99692.19;;;27.55;52.69
14882;BME280;7533;51.278;12.588;2023-08-08T16:55:00;99690.03;;;27.66;52.29
14882;BME280;7533;51.278;12.588;2023-08-08T17:00:05;99699.38;;;27.64;52.38
14882;BME280;7533;51.278;12.588;2023-08-08T17:05:18;99692.41;;;27.61;52.49
14882;BME280;7533;51.278;12.588;2023-08-08T17:10:23;99685.09;;;27.62;52.26
14882;BME280;7533;51.278;12.588;2023-08-08T17:15:27;99701.09;;;27.65;52.29
14882;BME280;7533;51.278;12.588;2023-08-08T17:20:30;99698.19;;;27.66;52.23
14882;BME280;7533;51.278;12.588;2023-08-08T17:25:36;99703.91;;;27.73;52.15
14882;BME280;7533;51.278;12.588;2023-08-08T17:30:39;99699.69;;;27.79;51.67
14882;BME280;7533;51.278;12.588;2023-08-08T17:35:44;99693.09;;;27.89;51.58
14882;BME280;7533;51.278;12.588;2023-08-08T17:40:49;99690.03;;;27.92;51.34
14882;BME280;7533;51.278;12.588;2023-08-08T17:45:52;99695.19;;;27.96;51.19
14882;BME280;7533;51.278;12.588;2023-08-08T17:50:58;99702.81;;;28.00;51.21
14882;BME280;7533;51.278;12.588;2023-08-08T17:56:04;99703.00;;;27.99;51.23
14882;BME280;7533;51.278;12.588;2023-08-08T18:01:07;99699.25;;;28.00;51.19
14882;BME280;7533;51.278;12.588;2023-08-08T18:06:10;99715.63;;;28.08;51.10
14882;BME280;7533;51.278;12.588;2023-08-08T18:11:15;99722.59;;;28.10;51.05
14882;BME280;7533;51.278;12.588;2023-08-08T18:16:19;99715.28;;;28.11;50.74
14882;BME280;7533;51.278;12.588;2023-08-08T18:21:22;99722.09;;;28.15;50.98
14882;BME280;7533;51.278;12.588;2023-08-08T18:26:27;99717.00;;;28.12;50.80
14882;BME280;7533;51.278;12.588;2023-08-08T18:31:31;99718.06;;;28.19;50.66
14882;BME280;7533;51.278;12.588;2023-08-08T18:36:35;99718.56;;;28.23;50.56
14882;BME280;7533;51.278;12.588;2023-08-08T18:41:40;99725.56;;;28.25;50.63
14882;BME280;7533;51.278;12.588;2023-08-08T18:46:43;99728.47;;;28.32;50.28
14882;BME280;7533;51.278;12.588;2023-08-08T18:51:47;99725.59;;;28.33;50.67
14882;BME280;7533;51.278;12.588;2023-08-08T18:56:52;99725.81;;;28.40;50.67
14882;BME280;7533;51.278;12.588;2023-08-08T19:01:55;99726.81;;;28.39;50.38
14882;BME280;7533;51.278;12.588;2023-08-08T19:06:58;99738.59;;;28.48;50.37
14882;BME280;7533;51.278;12.588;2023-08-08T19:12:03;99731.16;;;28.66;50.09
14882;BME280;7533;51.278;12.588;2023-08-08T19:17:08;99738.97;;;28.61;49.88
14882;BME280;7533;51.278;12.588;2023-08-08T19:22:11;99738.47;;;28.57;50.30
14882;BME280;7533;51.278;12.588;2023-08-08T19:27:16;99741.34;;;28.56;50.59
14882;BME280;7533;51.278;12.588;2023-08-08T19:32:19;99733.03;;;28.57;50.47
14882;BME280;7533;51.278;12.588;2023-08-08T19:37:22;99739.31;;;28.58;50.14
14882;BME280;7533;51.278;12.588;2023-08-08T19:42:27;99740.00;;;28.60;50.13
14882;BME280;7533;51.278;12.588;2023-08-08T19:47:30;99743.38;;;28.62;50.46
14882;BME280;7533;51.278;12.588;2023-08-08T19:52:34;99749.53;;;28.64;50.38
14882;BME280;7533;51.278;12.588;2023-08-08T19:57:38;99754.28;;;28.62;50.13
14882;BME280;7533;51.278;12.588;2023-08-08T20:02:41;99741.19;;;28.65;50.21
14882;BME280;7533;51.278;12.588;2023-08-08T20:07:48;99739.00;;;28.69;50.44
14882;BME280;7533;51.278;12.588;2023-08-08T20:12:53;99741.38;;;28.72;50.06
14882;BME280;7533;51.278;12.588;2023-08-08T20:17:56;99745.97;;;28.71;50.22
14882;BME280;7533;51.278;12.588;2023-08-08T20:22:59;99743.25;;;28.71;50.10
14882;BME280;7533;51.278;12.588;2023-08-08T20:28:04;99747.53;;;28.74;50.41
14882;BME280;7533;51.278;12.588;2023-08-08T20:33:08;99751.78;;;28.77;50.04
14882;BME280;7533;51.278;12.588;2023-08-08T20:38:11;99749.06;;;28.77;50.21
14882;BME280;7533;51.278;12.588;2023-08-08T20:43:16;99742.09;;;28.74;50.06
14882;BME280;7533;51.278;12.588;2023-08-08T20:48:19;99755.34;;;28.77;50.06
14882;BME280;7533;51.278;12.588;2023-08-08T20:53:22;99762.50;;;28.78;50.34
14882;BME280;7533;51.278;12.588;2023-08-08T20:58:27;99766.25;;;28.77;50.21
14882;BME280;7533;51.278;12.588;2023-08-08T21:03:31;99765.91;;;28.80;50.60
14882;BME280;7533;51.278;12.588;2023-08-08T21:08:35;99765.06;;;28.80;50.85
14882;BME280;7533;51.278;12.588;2023-08-08T21:13:39;99762.66;;;28.77;50.88
14882;BME280;7533;51.278;12.588;2023-08-08T21:18:43;99773.38;;;28.78;50.95
14882;BME280;7533;51.278;12.588;2023-08-08T21:23:45;99769.31;;;28.82;51.17
14882;BME280;7533;51.278;12.588;2023-08-08T21:28:50;99778.16;;;28.84;50.78
14882;BME280;7533;51.278;12.588;2023-08-08T21:33:53;99775.44;;;28.84;51.13
14882;BME280;7533;51.278;12.588;2023-08-08T21:38:57;99772.22;;;28.81;51.14
14882;BME280;7533;51.278;12.588;2023-08-08T21:44:01;99776.28;;;28.77;51.08
14882;BME280;7533;51.278;12.588;2023-08-08T21:49:05;99780.22;;;28.74;51.15
14882;BME280;7533;51.278;12.588;2023-08-08T21:54:09;99786.63;;;28.57;51.69
14882;BME280;7533;51.278;12.588;2023-08-08T21:59:13;99780.81;;;28.52;51.64
14882;BME280;7533;51.278;12.588;2023-08-08T22:04:17;99781.81;;;28.51;51.84
14882;BME280;7533;51.278;12.588;2023-08-08T22:09:20;99783.19;;;28.46;51.73
14882;BME280;7533;51.278;12.588;2023-08-08T22:14:24;99784.50;;;28.42;52.03
14882;BME280;7533;51.278;12.588;2023-08-08T22:19:27;99791.28;;;28.38;52.06
14882;BME280;7533;51.278;12.588;2023-08-08T22:24:31;99779.19;;;28.33;52.18
14882;BME280;7533;51.278;12.588;2023-08-08T22:29:36;99795.13;;;28.28;52.46
14882;BME280;7533;51.278;12.588;2023-08-08T22:34:39;99805.63;;;28.23;52.55
14882;BME280;7533;51.278;12.588;2023-08-08T22:39:42;99803.56;;;28.16;52.99
14882;BME280;7533;51.278;12.588;2023-08-08T22:44:46;99805.06;;;28.11;53.23
14882;BME280;7533;51.278;12.588;2023-08-08T22:49:50;99790.97;;;28.07;53.18
14882;BME280;7533;51.278;12.588;2023-08-08T22:54:53;99796.19;;;28.01;53.72
14882;BME280;7533;51.278;12.588;2023-08-08T22:59:58;99789.53;;;27.95;53.69
14882;BME280;7533;51.278;12.588;2023-08-08T23:05:01;99793.75;;;27.89;53.74
14882;BME280;7533;51.278;12.588;2023-08-08T23:10:05;99796.09;;;27.84;53.86
14882;BME280;7533;51.278;12.588;2023-08-08T23:15:10;99795.00;;;27.77;54.06
14882;BME280;7533;51.278;12.588;2023-08-08T23:20:13;99788.19;;;27.73;54.43
14882;BME280;7533;51.278;12.588;2023-08-08T23:25:16;99779.63;;;27.68;54.46
14882;BME280;7533;51.278;12.588;2023-08-08T23:30:25;99779.06;;;27.64;54.63
14882;BME280;7533;51.278;12.588;2023-08-08T23:35:28;99783.97;;;27.61;54.78
14882;BME280;7533;51.278;12.588;2023-08-08T23:40:31;99780.72;;;27.57;54.81
14882;BME280;7533;51.278;12.588;2023-08-08T23:45:36;99783.06;;;27.52;54.98
14882;BME280;7533;51.278;12.588;2023-08-08T23:50:39;99772.66;;;27.48;54.91
14882;BME280;7533;51.278;12.588;2023-08-08T23:55:42;99762.25;;;27.43;55.12
